Time;durP1;ratioP1;P1;durP2;ratioP2;P2;SDS_P1;SDS_P2;PMS_P1;PMS_P2;Temp;Humidity;BMP_temperature;BMP_pressure;BME280_temperature;BME280_humidity;BME280_pressure;Samples;Min_cycle;Max_cycle;Signal;HPM_P1;HPM_P2
2022/03/22 00:00:49;;;;;;;45.13;22.05;;;6.70;99.90;;;;;;5031143;28;20124;-70
2022/03/22 00:03:24;;;;;;;41.30;20.55;;;6.70;99.90;;;;;;5019188;28;20095;-70
2022/03/22 00:05:52;;;;;;;42.78;19.35;;;6.70;99.90;;;;;;4941872;28;21185;-69
2022/03/22 00:08:43;;;;;;;41.17;21.63;;;6.70;99.90;;;;;;4872299;28;20975;-68
2022/03/22 00:11:16;;;;;;;36.03;21.27;;;6.70;99.90;;;;;;4874766;28;20689;-73
2022/03/22 00:13:45;;;;;;;44.88;22.33;;;6.60;99.90;;;;;;4841996;28;21024;-73
2022/03/22 00:16:12;;;;;;;;;;;6.70;99.90;;;;;;5024081;28;20478;-72
2022/03/22 00:18:38;;;;;;;39.95;20.90;;;6.60;99.90;;;;;;5009466;28;19924;-72
2022/03/22 00:21:06;;;;;;;;;;;6.60;99.90;;;;;;5032705;28;20057;-72
2022/03/22 00:23:33;;;;;;;;;;;6.60;99.90;;;;;;4829621;28;20974;-74
2022/03/22 00:25:59;;;;;;;40.85;19.98;;;6.50;99.90;;;;;;4773685;28;20894;-74
2022/03/22 00:28:25;;;;;;;;;;;6.50;99.90;;;;;;4803316;28;20289;-73
2022/03/22 00:30:51;;;;;;;35.83;19.13;;;6.50;99.90;;;;;;5023651;28;19920;-73
2022/03/22 00:33:20;;;;;;;38.17;19.67;;;6.50;99.90;;;;;;4879395;28;21173;-69
2022/03/22 00:36:19;;;;;;;38.25;20.20;;;6.50;99.90;;;;;;4813229;28;20362;-68
2022/03/22 00:38:45;;;;;;;40.17;21.60;;;6.50;99.90;;;;;;5034083;28;20060;-70
2022/03/22 00:41:13;;;;;;;39.88;20.58;;;6.40;99.90;;;;;;5038132;28;20069;-70
2022/03/22 00:43:40;;;;;;;38.55;19.70;;;6.50;99.90;;;;;;5012181;28;20037;-72
2022/03/22 00:46:06;;;;;;;44.35;21.98;;;6.40;99.90;;;;;;5028280;28;20511;-72
2022/03/22 00:48:33;;;;;;;38.33;20.52;;;6.40;99.90;;;;;;5030838;28;20086;-72
2022/03/22 00:50:59;;;;;;;;;;;6.50;99.90;;;;;;4782721;28;20527;-72
2022/03/22 00:53:25;;;;;;;44.65;22.05;;;6.50;99.90;;;;;;5033437;28;19920;-72
2022/03/22 00:55:54;;;;;;;34.90;19.35;;;6.40;99.90;;;;;;4972688;28;20763;-72
2022/03/22 00:58:21;;;;;;;41.92;21.10;;;6.40;99.90;;;;;;4862637;28;20148;-72
2022/03/22 01:00:48;;;;;;;42.28;22.30;;;6.40;99.90;;;;;;4969571;28;20033;-72
2022/03/22 01:03:14;;;;;;;41.45;21.38;;;6.40;99.90;;;;;;5044857;28;20148;-72
2022/03/22 01:05:40;;;;;;;;;;;6.40;99.90;;;;;;5041355;28;20040;-72
2022/03/22 01:08:10;;;;;;;40.83;20.30;;;6.40;99.90;;;;;;5030818;28;19925;-72
2022/03/22 01:10:38;;;;;;;36.85;20.63;;;6.30;99.90;;;;;;5023982;28;20052;-72
2022/03/22 01:13:06;;;;;;;41.08;21.30;;;6.40;99.90;;;;;;5040515;28;20055;-72
2022/03/22 01:15:35;;;;;;;44.58;21.75;;;6.30;99.90;;;;;;5011255;28;20041;-72
2022/03/22 01:18:08;;;;;;;44.92;22.83;;;6.40;99.90;;;;;;5029610;28;20049;-72
2022/03/22 01:20:40;;;;;;;39.67;20.75;;;6.30;99.90;;;;;;5033400;28;20045;-72
2022/03/22 01:23:08;;;;;;;38.22;21.55;;;6.30;99.90;;;;;;4969581;28;20137;-72
2022/03/22 01:25:36;;;;;;;44.53;23.85;;;6.30;99.90;;;;;;4917843;28;20235;-72
2022/03/22 01:28:04;;;;;;;44.75;22.33;;;6.30;99.90;;;;;;4988028;28;20048;-72
2022/03/22 01:30:31;;;;;;;41.10;22.48;;;6.30;99.90;;;;;;5029473;28;20044;-72
2022/03/22 01:32:57;;;;;;;40.33;21.75;;;6.30;99.90;;;;;;5031012;28;20123;-72
2022/03/22 01:35:25;;;;;;;37.30;20.92;;;6.30;99.90;;;;;;5011823;28;20156;-72
2022/03/22 01:37:53;;;;;;;43.13;21.88;;;6.30;99.90;;;;;;5025447;28;20377;-72
2022/03/22 01:40:22;;;;;;;41.38;23.02;;;6.20;99.90;;;;;;5013676;28;20043;-72
2022/03/22 01:42:48;;;;;;;39.88;21.85;;;6.20;99.90;;;;;;5012727;28;20113;-72
2022/03/22 01:45:15;;;;;;;42.95;21.10;;;6.20;99.90;;;;;;5014824;28;20386;-72
2022/03/22 01:47:43;;;;;;;38.47;20.67;;;6.20;99.90;;;;;;5027684;28;20155;-72
2022/03/22 01:50:11;;;;;;;39.08;21.35;;;6.20;99.90;;;;;;5017956;28;20151;-71
2022/03/22 01:52:44;;;;;;;42.50;22.27;;;6.10;99.90;;;;;;5031544;28;20135;-72
2022/03/22 01:55:12;;;;;;;41.63;21.40;;;6.20;99.90;;;;;;5018572;28;20041;-72
2022/03/22 01:57:38;;;;;;;42.92;22.40;;;6.10;99.90;;;;;;5017838;28;20063;-72
2022/03/22 02:00:07;;;;;;;45.00;22.43;;;6.10;99.90;;;;;;5019133;28;20053;-72
2022/03/22 02:08:08;;;;;;;42.72;21.38;;;6.10;99.90;;;;;;5009327;28;20344;-72
2022/03/22 02:10:34;;;;;;;45.15;22.67;;;6.10;99.90;;;;;;5015499;28;20118;-72
2022/03/22 02:13:00;;;;;;;45.42;22.05;;;6.10;99.90;;;;;;5009262;28;20091;-72
2022/03/22 02:15:26;;;;;;;42.67;21.98;;;6.10;99.90;;;;;;5016034;28;20072;-72
2022/03/22 02:17:52;;;;;;;39.23;21.63;;;6.10;99.90;;;;;;5019167;28;20041;-72
2022/03/22 02:20:18;;;;;;;45.00;22.33;;;6.10;99.90;;;;;;5014004;28;20051;-72
2022/03/22 02:23:19;;;;;;;40.50;20.80;;;6.10;99.90;;;;;;5032197;28;20041;-72
2022/03/22 02:25:45;;;;;;;43.47;21.02;;;6.10;99.90;;;;;;5014552;28;20051;-72
2022/03/22 02:28:12;;;;;;;46.05;22.25;;;6.10;99.90;;;;;;5038009;28;20041;-72
2022/03/22 02:30:38;;;;;;;46.78;21.73;;;6.10;99.90;;;;;;5036756;28;20125;-72
2022/03/22 02:33:04;;;;;;;43.10;22.25;;;6.00;99.90;;;;;;5038674;28;20040;-78
2022/03/22 02:35:30;;;;;;;48.63;23.47;;;6.10;99.90;;;;;;5005120;28;20041;-71
2022/03/22 02:37:57;;;;;;;45.75;22.48;;;6.00;99.90;;;;;;5055220;22;20054;-67
2022/03/22 02:40:28;;;;;;;45.35;23.77;;;6.00;99.90;;;;;;5103446;28;20047;-74
2022/03/22 02:42:56;;;;;;;45.47;22.38;;;6.00;99.90;;;;;;5077341;28;20138;-72
2022/03/22 02:45:23;;;;;;;44.25;22.92;;;6.00;99.90;;;;;;5081156;28;20122;-73
2022/03/22 02:47:48;;;;;;;;;;;6.00;99.90;;;;;;5080439;28;20285;-74
2022/03/22 02:50:14;;;;;;;40.08;21.85;;;6.00;99.90;;;;;;5074567;28;19915;-74
2022/03/22 02:52:40;;;;;;;42.73;21.57;;;6.00;99.90;;;;;;5096529;28;20456;-74
2022/03/22 02:55:09;;;;;;;43.35;22.70;;;6.00;99.90;;;;;;5057370;28;20044;-74
2022/03/22 02:57:36;;;;;;;50.28;23.40;;;6.00;99.90;;;;;;5074666;28;20123;-73
2022/03/22 03:00:04;;;;;;;43.05;22.05;;;6.00;99.90;;;;;;5077247;28;20602;-75
2022/03/22 03:02:30;;;;;;;43.38;22.77;;;6.00;99.90;;;;;;5070886;28;20506;-74
2022/03/22 03:04:56;;;;;;;40.27;21.40;;;6.00;99.90;;;;;;5073062;28;20097;-74
2022/03/22 03:07:22;;;;;;;42.95;21.98;;;6.00;99.90;;;;;;5079435;27;21070;-74
2022/03/22 03:09:48;;;;;;;41.10;22.03;;;6.10;99.90;;;;;;5073370;28;20570;-74
2022/03/22 03:12:14;;;;;;;48.10;22.95;;;6.10;99.90;;;;;;5071301;28;20259;-74
2022/03/22 03:14:40;;;;;;;40.80;21.57;;;6.00;99.90;;;;;;5097335;28;20412;-73
2022/03/22 03:17:07;;;;;;;44.97;21.50;;;6.00;99.90;;;;;;5078499;28;20070;-74
2022/03/22 03:19:33;;;;;;;41.78;21.85;;;6.00;99.90;;;;;;5094878;28;20040;-73
2022/03/22 03:21:59;;;;;;;40.10;20.97;;;6.00;99.90;;;;;;5075845;28;20351;-73
2022/03/22 03:24:24;;;;;;;40.80;21.40;;;6.00;99.90;;;;;;5073445;28;20038;-73
2022/03/22 03:26:50;;;;;;;47.70;23.07;;;5.90;99.90;;;;;;5078895;28;20648;-73
2022/03/22 03:29:15;;;;;;;41.23;20.47;;;5.90;99.90;;;;;;5098525;28;20534;-74
2022/03/22 03:31:44;;;;;;;38.53;21.40;;;5.90;99.90;;;;;;5069427;28;20142;-73
2022/03/22 03:34:09;;;;;;;42.43;22.00;;;5.80;99.90;;;;;;5097009;27;20191;-74
2022/03/22 03:36:35;;;;;;;38.53;21.37;;;5.80;99.90;;;;;;5074142;28;20137;-74
2022/03/22 03:39:03;;;;;;;42.55;20.88;;;5.80;99.90;;;;;;5062095;28;20047;-73
2022/03/22 03:47:13;;;;;;;47.35;21.65;;;5.70;99.90;;;;;;5073341;28;20536;-73
2022/03/22 03:49:54;;;;;;;42.33;22.02;;;5.70;99.90;;;;;;5069250;28;20135;-72
2022/03/22 03:52:23;;;;;;;42.28;21.20;;;5.70;99.90;;;;;;5076210;28;20203;-73
2022/03/22 03:54:49;;;;;;;45.10;22.35;;;5.70;99.90;;;;;;5063209;28;20039;-72
2022/03/22 03:57:15;;;;;;;44.65;22.83;;;5.60;99.90;;;;;;5095961;28;20028;-73
2022/03/22 03:59:41;;;;;;;51.17;25.42;;;5.60;99.90;;;;;;5074660;28;20042;-73
2022/03/22 04:02:07;;;;;;;48.30;24.08;;;5.60;99.90;;;;;;5077028;28;20101;-72
2022/03/22 04:04:37;;;;;;;45.35;23.15;;;5.60;99.90;;;;;;5076861;28;20080;-73
2022/03/22 04:07:05;;;;;;;50.45;22.67;;;5.60;99.90;;;;;;5068393;28;20554;-73
2022/03/22 04:09:35;;;;;;;41.20;22.50;;;5.70;99.90;;;;;;5081995;28;20154;-73
2022/03/22 04:12:02;;;;;;;44.35;24.13;;;5.70;99.90;;;;;;5072272;28;20218;-74
2022/03/22 04:14:28;;;;;;;45.92;23.33;;;5.70;99.90;;;;;;5066286;28;20295;-73
2022/03/22 04:16:56;;;;;;;47.58;23.83;;;5.70;99.90;;;;;;5075410;28;20165;-73
2022/03/22 04:19:26;;;;;;;46.60;23.05;;;5.70;99.90;;;;;;5075115;28;20395;-74
2022/03/22 04:21:52;;;;;;;46.60;22.42;;;5.70;99.90;;;;;;5074144;28;20456;-73
2022/03/22 04:24:18;;;;;;;46.85;23.73;;;5.70;99.90;;;;;;5074993;28;20415;-73
2022/03/22 04:26:45;;;;;;;46.10;24.27;;;5.70;99.90;;;;;;5081419;28;20039;-73
2022/03/22 04:34:44;;;;;;;46.92;23.20;;;5.70;99.90;;;;;;5076308;28;20055;-73
2022/03/22 04:37:15;;;;;;;47.17;23.90;;;5.70;99.90;;;;;;5070577;28;20047;-73
2022/03/22 04:39:42;;;;;;;45.83;22.65;;;5.70;99.90;;;;;;5077664;28;20061;-73
2022/03/22 04:42:08;;;;;;;50.42;24.13;;;5.70;99.90;;;;;;5063114;28;20112;-73
2022/03/22 04:44:35;;;;;;;46.75;24.38;;;5.70;99.90;;;;;;5085337;28;20047;-73
2022/03/22 04:47:01;;;;;;;50.15;23.75;;;5.70;99.90;;;;;;5076845;28;20461;-73
2022/03/22 04:49:29;;;;;;;44.00;22.73;;;5.70;99.90;;;;;;5069572;28;20072;-73
2022/03/22 04:57:26;;;;;;;48.22;24.13;;;5.70;99.90;;;;;;5075873;28;20048;-73
2022/03/22 04:59:52;;;;;;;45.13;24.33;;;5.70;99.90;;;;;;5072322;28;20040;-72
2022/03/22 05:02:18;;;;;;;47.67;24.98;;;5.70;99.90;;;;;;5078564;28;20067;-73
2022/03/22 05:04:43;;;;;;;47.73;24.10;;;5.70;99.90;;;;;;5064759;28;20040;-73
2022/03/22 05:07:11;;;;;;;42.80;22.90;;;5.70;99.90;;;;;;5073070;28;20546;-73
2022/03/22 05:09:37;;;;;;;46.08;23.23;;;5.70;99.90;;;;;;5074533;28;21427;-73
2022/03/22 05:12:03;;;;;;;42.77;22.77;;;5.70;99.90;;;;;;5075099;28;20048;-73
2022/03/22 05:14:29;;;;;;;47.13;22.60;;;5.70;99.90;;;;;;5078562;28;20357;-73
2022/03/22 05:16:58;;;;;;;51.77;24.87;;;5.60;99.90;;;;;;5073608;28;20056;-73
2022/03/22 05:19:25;;;;;;;48.67;23.17;;;5.60;99.90;;;;;;5074449;28;20085;-73
2022/03/22 05:21:51;;;;;;;49.33;23.05;;;5.60;99.90;;;;;;5075456;28;20044;-73
2022/03/22 05:24:17;;;;;;;44.57;22.87;;;5.60;99.90;;;;;;5057528;28;20031;-73
2022/03/22 05:26:45;;;;;;;44.33;23.42;;;5.60;99.90;;;;;;5082305;28;20095;-73
2022/03/22 05:29:11;;;;;;;49.80;24.30;;;5.60;99.90;;;;;;5078566;28;20050;-73
2022/03/22 05:31:37;;;;;;;47.67;23.75;;;5.60;99.90;;;;;;5078526;28;20102;-73
2022/03/22 05:34:03;;;;;;;39.43;20.70;;;5.50;99.90;;;;;;5082600;28;20071;-73
2022/03/22 05:36:28;;;;;;;46.93;23.73;;;5.50;99.90;;;;;;5077960;28;20054;-73
2022/03/22 05:38:54;;;;;;;49.37;24.50;;;5.50;99.90;;;;;;5098493;28;20074;-73
2022/03/22 05:41:20;;;;;;;45.63;23.63;;;5.50;99.90;;;;;;5078297;27;20044;-73
2022/03/22 05:43:47;;;;;;;45.97;23.42;;;5.50;99.90;;;;;;5063029;28;20346;-73
2022/03/22 05:46:15;;;;;;;45.25;24.00;;;5.50;99.90;;;;;;5076638;28;20239;-73
2022/03/22 05:48:40;;;;;;;46.15;23.10;;;5.50;99.90;;;;;;5078807;28;20464;-74
2022/03/22 05:51:06;;;;;;;49.53;24.30;;;5.50;99.90;;;;;;5074656;28;20098;-73
2022/03/22 05:53:32;;;;;;;48.43;23.33;;;5.50;99.90;;;;;;5086204;28;20167;-73
2022/03/22 05:55:58;;;;;;;45.43;25.00;;;5.50;99.90;;;;;;5072659;28;20176;-74
2022/03/22 05:58:23;;;;;;;54.10;23.97;;;5.50;99.90;;;;;;5071877;28;20058;-72
2022/03/22 06:00:49;;;;;;;50.80;25.15;;;5.50;99.90;;;;;;5077606;28;20051;-73
2022/03/22 06:03:15;;;;;;;49.93;22.33;;;5.50;99.90;;;;;;5076948;28;20066;-73
2022/03/22 06:05:42;;;;;;;52.17;24.67;;;5.50;99.90;;;;;;5078118;28;20035;-73
2022/03/22 06:08:08;;;;;;;55.00;23.88;;;5.50;99.90;;;;;;5100820;27;20538;-73
2022/03/22 06:10:34;;;;;;;45.45;24.65;;;5.50;99.90;;;;;;5084506;28;20399;-73
2022/03/22 06:13:00;;;;;;;44.43;25.40;;;5.60;99.90;;;;;;5074394;28;20143;-72
2022/03/22 06:15:31;;;;;;;50.47;24.20;;;5.60;99.90;;;;;;5078244;28;20547;-74
2022/03/22 06:17:59;;;;;;;47.30;23.85;;;5.60;99.90;;;;;;5079440;28;20047;-73
2022/03/22 06:20:27;;;;;;;55.60;25.38;;;5.60;99.90;;;;;;5075018;28;20043;-74
2022/03/22 06:22:54;;;;;;;49.20;23.73;;;5.60;99.90;;;;;;5100561;27;20048;-73
2022/03/22 06:25:20;;;;;;;51.15;26.13;;;5.70;99.90;;;;;;5101907;27;20458;-72
2022/03/22 06:27:48;;;;;;;48.53;23.98;;;5.70;99.90;;;;;;5077407;28;20048;-72
2022/03/22 06:30:15;;;;;;;51.53;24.58;;;5.70;99.90;;;;;;5064397;28;20067;-72
2022/03/22 06:32:42;;;;;;;48.13;24.48;;;5.80;99.90;;;;;;5082065;28;20131;-72
2022/03/22 06:35:10;;;;;;;46.97;24.48;;;5.80;99.90;;;;;;5083927;28;20084;-72
2022/03/22 06:37:37;;;;;;;45.00;23.73;;;5.80;99.90;;;;;;5075005;28;20051;-73
2022/03/22 06:40:03;;;;;;;;;;;5.90;99.90;;;;;;5064270;28;20040;-73
2022/03/22 06:42:29;;;;;;;48.28;23.15;;;5.90;99.90;;;;;;5075731;28;20418;-72
2022/03/22 06:44:57;;;;;;;54.53;25.63;;;6.00;99.90;;;;;;5078236;28;20047;-73
2022/03/22 06:47:23;;;;;;;46.83;24.10;;;6.00;99.90;;;;;;5083663;28;20036;-75
2022/03/22 06:49:49;;;;;;;46.00;23.77;;;6.10;99.90;;;;;;5078935;28;20384;-77
2022/03/22 06:52:14;;;;;;;48.13;25.33;;;6.10;99.90;;;;;;5085736;28;20036;-76
2022/03/22 06:54:40;;;;;;;44.93;23.80;;;6.10;99.90;;;;;;5101555;27;20539;-73
2022/03/22 06:57:06;;;;;;;46.17;24.10;;;6.20;99.90;;;;;;5083179;28;20046;-74
2022/03/22 06:59:33;;;;;;;43.40;23.85;;;6.20;99.90;;;;;;5087822;28;20035;-77
2022/03/22 07:01:59;;;;;;;47.92;24.08;;;6.30;99.90;;;;;;5087168;28;20196;-77
2022/03/22 07:04:25;;;;;;;50.17;25.73;;;6.40;99.90;;;;;;5080174;28;20052;-73
2022/03/22 07:06:50;;;;;;;46.90;24.67;;;6.40;99.90;;;;;;5073363;28;20095;-72
2022/03/22 07:09:16;;;;;;;58.60;25.33;;;6.50;99.90;;;;;;5070253;28;20043;-72
2022/03/22 07:11:49;;;;;;;44.13;25.37;;;6.50;99.90;;;;;;5083213;28;20051;-73
2022/03/22 07:14:16;;;;;;;47.80;24.48;;;6.60;99.90;;;;;;5078006;27;20074;-72
2022/03/22 07:16:42;;;;;;;;;;;6.60;99.90;;;;;;5086859;28;20036;-72
2022/03/22 07:19:07;;;;;;;45.53;24.67;;;6.70;99.90;;;;;;5080791;28;19985;-72
2022/03/22 07:21:33;;;;;;;44.10;23.70;;;6.70;99.90;;;;;;5077654;28;20226;-73
2022/03/22 07:23:58;;;;;;;46.77;24.03;;;6.80;99.90;;;;;;5079495;28;20043;-72
2022/03/22 07:26:24;;;;;;;45.00;24.23;;;6.90;99.90;;;;;;5105116;28;20039;-73
2022/03/22 07:28:49;;;;;;;48.80;24.87;;;7.00;99.90;;;;;;5079867;28;20451;-76
2022/03/22 07:31:15;;;;;;;53.63;26.63;;;7.10;99.90;;;;;;5079737;28;20043;-72
2022/03/22 07:33:41;;;;;;;50.47;25.23;;;7.20;99.90;;;;;;5100849;28;20035;-72
2022/03/22 07:36:06;;;;;;;46.47;24.37;;;7.40;99.90;;;;;;5075744;28;20204;-72
2022/03/22 07:38:32;;;;;;;45.73;25.43;;;7.50;99.90;;;;;;5088915;28;20276;-72
2022/03/22 07:40:57;;;;;;;43.40;23.93;;;7.70;99.90;;;;;;5081973;28;20088;-73
2022/03/22 07:43:28;;;;;;;49.43;23.43;;;7.70;99.90;;;;;;5077617;28;20035;-73
2022/03/22 07:45:54;;;;;;;43.08;22.88;;;7.90;99.90;;;;;;5082129;28;20465;-72
2022/03/22 07:48:20;;;;;;;47.05;23.15;;;8.00;99.90;;;;;;5081184;28;20371;-72
2022/03/22 07:53:29;;;;;;;42.45;22.98;;;8.30;99.90;;;;;;5083409;28;20532;-73
2022/03/22 07:55:55;;;;;;;39.87;22.40;;;8.30;99.90;;;;;;5081668;28;20066;-73
2022/03/22 07:58:20;;;;;;;43.17;23.37;;;8.50;99.90;;;;;;5077808;28;20047;-74
2022/03/22 08:00:47;;;;;;;44.10;23.90;;;8.60;99.90;;;;;;5102023;28;20040;-73
2022/03/22 08:03:15;;;;;;;44.80;23.45;;;8.70;99.90;;;;;;5083743;28;20059;-72
2022/03/22 08:05:44;;;;;;;48.75;22.67;;;8.80;99.90;;;;;;5106197;28;20448;-73
2022/03/22 08:08:09;;;;;;;46.35;22.73;;;8.90;99.90;;;;;;5080250;27;20050;-72
2022/03/22 08:10:35;;;;;;;42.07;22.63;;;9.00;99.90;;;;;;5081006;28;20118;-73
2022/03/22 08:13:02;;;;;;;41.47;22.48;;;9.00;99.90;;;;;;5076141;28;20069;-73
2022/03/22 08:15:28;;;;;;;43.97;24.13;;;9.10;99.90;;;;;;5082995;28;20066;-73
2022/03/22 08:17:55;;;;;;;39.70;22.25;;;9.20;99.90;;;;;;5086587;28;20097;-73
2022/03/22 08:20:21;;;;;;;47.88;24.05;;;9.30;99.90;;;;;;5064705;28;20470;-73
2022/03/22 08:23:03;;;;;;;47.08;24.63;;;9.30;99.90;;;;;;5101648;28;20035;-73
2022/03/22 08:25:38;;;;;;;48.13;23.77;;;9.40;99.90;;;;;;5084462;27;20455;-73
2022/03/22 08:28:08;;;;;;;39.30;22.75;;;9.50;99.90;;;;;;5087221;28;20172;-73
2022/03/22 08:30:35;;;;;;;43.47;22.95;;;9.60;99.90;;;;;;5078828;28;20288;-73
2022/03/22 08:33:11;;;;;;;40.25;23.17;;;9.60;99.90;;;;;;5077138;28;20109;-72
2022/03/22 08:35:48;;;;;;;42.47;21.52;;;9.80;99.90;;;;;;5080329;28;20044;-73
2022/03/22 08:38:15;;;;;;;43.15;22.75;;;9.90;99.90;;;;;;5093649;22;20549;-82
2022/03/22 08:40:41;;;;;;;41.80;21.58;;;10.00;99.90;;;;;;5043322;28;20040;-80
2022/03/22 08:43:10;;;;;;;;;;;10.10;99.90;;;;;;5019178;28;20123;-82
2022/03/22 08:45:50;;;;;;;42.90;23.00;;;10.10;99.90;;;;;;5039388;28;20523;-82
2022/03/22 08:48:16;;;;;;;42.40;23.45;;;10.20;99.90;;;;;;5055320;22;20479;-72
2022/03/22 08:50:44;;;;;;;41.88;23.15;;;10.30;99.90;;;;;;5075449;28;20047;-72
2022/03/22 08:53:11;;;;;;;42.80;23.17;;;10.30;99.90;;;;;;5084137;28;20047;-72
2022/03/22 08:55:37;;;;;;;;;;;10.30;99.90;;;;;;5066164;28;20229;-72
2022/03/22 08:58:05;;;;;;;38.28;20.23;;;10.40;99.90;;;;;;5066801;28;19995;-72
2022/03/22 09:00:35;;;;;;;42.88;23.10;;;10.40;99.90;;;;;;5068287;28;20040;-72
2022/03/22 09:03:02;;;;;;;42.85;22.90;;;10.40;99.90;;;;;;5058355;28;20040;-72
2022/03/22 09:08:12;;;;;;;43.47;22.05;;;10.50;99.90;;;;;;5067185;28;20047;-72
2022/03/22 09:10:38;;;;;;;44.63;22.80;;;10.60;99.90;;;;;;5069405;28;20047;-72
2022/03/22 09:13:05;;;;;;;42.53;23.95;;;10.60;99.90;;;;;;5059928;28;20078;-72
2022/03/22 09:15:31;;;;;;;40.83;22.27;;;10.70;99.90;;;;;;5068121;28;20083;-72
2022/03/22 09:17:57;;;;;;;40.15;21.98;;;10.80;99.90;;;;;;5067434;28;20373;-72
2022/03/22 09:20:25;;;;;;;35.83;20.58;;;10.80;99.90;;;;;;5066006;28;20482;-72
2022/03/22 09:22:52;;;;;;;42.97;23.42;;;10.90;99.90;;;;;;5043142;28;20135;-72
2022/03/22 09:25:24;;;;;;;39.17;22.42;;;11.00;99.90;;;;;;5082184;28;20040;-72
2022/03/22 09:27:50;;;;;;;39.05;21.13;;;11.00;99.90;;;;;;5068741;28;20036;-72
2022/03/22 09:30:17;;;;;;;35.78;20.52;;;11.10;99.90;;;;;;5083591;28;20032;-72
2022/03/22 09:32:43;;;;;;;39.42;22.98;;;11.20;99.90;;;;;;5065146;28;20537;-72
2022/03/22 09:35:10;;;;;;;41.20;22.00;;;11.30;99.90;;;;;;5089090;28;20061;-72
2022/03/22 09:37:42;;;;;;;33.83;20.50;;;11.40;99.90;;;;;;5068232;28;20071;-72
2022/03/22 09:40:09;;;;;;;41.72;20.60;;;11.60;99.90;;;;;;5069868;28;20036;-72
2022/03/22 09:42:37;;;;;;;40.50;21.92;;;11.70;99.90;;;;;;5064905;28;20455;-72
2022/03/22 09:45:04;;;;;;;35.50;21.85;;;11.90;99.90;;;;;;5086035;28;20044;-71
2022/03/22 09:47:29;;;;;;;37.97;20.58;;;12.00;99.90;;;;;;5046580;28;20059;-72
2022/03/22 09:49:56;;;;;;;37.50;22.07;;;12.20;99.90;;;;;;5065459;28;20043;-72
2022/03/22 09:52:22;;;;;;;36.53;20.98;;;12.30;99.90;;;;;;5064705;28;20044;-72
2022/03/22 09:54:48;;;;;;;38.08;20.83;;;12.40;99.90;;;;;;5068750;28;20515;-72
2022/03/22 09:57:14;;;;;;;37.70;21.10;;;12.70;99.90;;;;;;5070061;28;20086;-72
2022/03/22 09:59:40;;;;;;;40.93;20.60;;;12.80;99.90;;;;;;5064386;28;20420;-72
2022/03/22 10:02:06;;;;;;;35.50;21.13;;;12.90;99.90;;;;;;5061704;28;20298;-72
2022/03/22 10:04:39;;;;;;;37.97;20.70;;;13.10;99.90;;;;;;5069791;28;20048;-72
2022/03/22 10:07:06;;;;;;;37.45;21.45;;;13.30;99.90;;;;;;5060558;28;20048;-72
2022/03/22 10:09:36;;;;;;;33.78;19.55;;;13.40;99.90;;;;;;5077389;28;20377;-73
2022/03/22 10:12:03;;;;;;;36.10;19.92;;;13.60;99.90;;;;;;5066184;28;20400;-71
2022/03/22 10:14:38;;;;;;;41.53;21.45;;;13.80;99.90;;;;;;5063323;28;20040;-72
2022/03/22 10:17:09;;;;;;;35.53;19.50;;;13.90;99.90;;;;;;5065800;28;20044;-72
2022/03/22 10:19:42;;;;;;;34.88;18.80;;;14.10;99.90;;;;;;5061535;28;20058;-72
2022/03/22 10:22:10;;;;;;;31.48;18.33;;;14.30;99.90;;;;;;5065946;28;20045;-72
2022/03/22 10:24:47;;;;;;;35.20;19.30;;;14.40;99.90;;;;;;5080704;28;20494;-72
2022/03/22 10:27:31;;;;;;;34.45;19.13;;;14.60;99.90;;;;;;5048295;28;20047;-72
2022/03/22 10:30:00;;;;;;;34.47;19.23;;;14.70;97.50;;;;;;5064945;28;20059;-72
2022/03/22 10:32:39;;;;;;;31.77;17.55;;;14.80;98.70;;;;;;5066149;28;20079;-72
2022/03/22 10:35:16;;;;;;;32.63;18.08;;;15.00;97.00;;;;;;5081873;28;20518;-72
2022/03/22 10:37:43;;;;;;;32.83;18.20;;;15.20;94.00;;;;;;5086100;28;20040;-72
2022/03/22 10:40:31;;;;;;;33.88;19.02;;;15.30;95.30;;;;;;5056630;28;20043;-72
2022/03/22 10:43:08;;;;;;;29.80;16.70;;;15.50;92.20;;;;;;5074252;28;20060;-72
2022/03/22 10:45:44;;;;;;;32.17;18.13;;;15.60;93.10;;;;;;5082853;28;20051;-73
2022/03/22 10:48:15;;;;;;;30.25;16.65;;;15.80;92.50;;;;;;5065669;28;20052;-73
2022/03/22 10:50:41;;;;;;;29.25;17.40;;;16.00;92.30;;;;;;5067037;28;20123;-73
2022/03/22 10:53:07;;;;;;;30.80;17.08;;;16.10;90.20;;;;;;5082993;28;20116;-73
2022/03/22 10:55:32;;;;;;;33.13;16.45;;;16.20;86.50;;;;;;5082797;28;20032;-72
2022/03/22 10:58:01;;;;;;;31.57;16.97;;;16.40;84.60;;;;;;5080180;28;20420;-72
2022/03/22 11:00:28;;;;;;;30.52;16.90;;;16.50;81.80;;;;;;5068219;28;20516;-73
2022/03/22 11:02:56;;;;;;;28.98;17.85;;;16.70;79.40;;;;;;5077461;28;20101;-72
2022/03/22 11:05:23;;;;;;;29.58;16.92;;;16.80;75.40;;;;;;5055794;28;20044;-72
2022/03/22 11:07:51;;;;;;;30.65;17.25;;;16.90;74.30;;;;;;5045110;28;20036;-72
2022/03/22 11:10:30;;;;;;;29.38;17.38;;;16.90;74.60;;;;;;5082562;28;20025;-73
2022/03/22 11:13:00;;;;;;;29.38;16.48;;;17.10;72.70;;;;;;5068289;28;20439;-73
2022/03/22 11:15:45;;;;;;;28.65;16.92;;;17.20;73.60;;;;;;5063389;28;20489;-72
2022/03/22 11:18:12;;;;;;;28.42;17.50;;;17.40;72.80;;;;;;5064445;28;20035;-72
2022/03/22 11:20:51;;;;;;;27.60;15.60;;;17.50;73.40;;;;;;5080511;28;20076;-75
2022/03/22 11:23:26;;;;;;;31.02;16.85;;;17.60;72.70;;;;;;5061586;28;20044;-76
2022/03/22 11:25:52;;;;;;;26.73;16.60;;;17.70;70.50;;;;;;5090543;28;20047;-76
2022/03/22 11:28:23;;;;;;;29.20;17.25;;;17.80;69.30;;;;;;5056904;28;20032;-75
2022/03/22 11:30:52;;;;;;;27.65;16.08;;;17.90;69.20;;;;;;5083318;28;20040;-76
2022/03/22 11:36:17;;;;;;;27.02;16.95;;;18.20;68.40;;;;;;5073008;28;20048;-76
2022/03/22 11:38:52;;;;;;;26.73;16.85;;;18.30;66.30;;;;;;5072185;28;20044;-75
2022/03/22 11:44:33;;;;;;;28.65;17.33;;;18.60;65.10;;;;;;5071774;28;20131;-75
2022/03/22 11:47:23;;;;;;;30.17;16.20;;;18.60;65.70;;;;;;5074152;28;20051;-75
2022/03/22 11:49:59;;;;;;;27.70;16.38;;;18.80;64.40;;;;;;5090538;28;20076;-76
2022/03/22 11:52:26;;;;;;;28.27;16.48;;;18.90;63.40;;;;;;5091544;28;20396;-75
2022/03/22 11:55:08;;;;;;;28.05;15.65;;;19.00;63.80;;;;;;5093351;28;20059;-75
2022/03/22 11:57:47;;;;;;;29.25;15.57;;;19.10;62.20;;;;;;5081919;28;20079;-75
2022/03/22 12:00:19;;;;;;;26.15;14.93;;;19.20;62.30;;;;;;5072537;28;20047;-75
2022/03/22 12:02:51;;;;;;;25.20;15.85;;;19.30;60.80;;;;;;5071548;28;20051;-75
2022/03/22 12:05:18;;;;;;;25.25;16.23;;;19.40;61.20;;;;;;5090587;28;20378;-76
2022/03/22 12:07:45;;;;;;;25.33;15.07;;;19.40;60.30;;;;;;5071499;28;20040;-76
2022/03/22 12:10:21;;;;;;;24.92;15.00;;;19.60;58.50;;;;;;5091114;28;20405;-76
2022/03/22 12:12:49;;;;;;;26.77;14.65;;;19.70;58.60;;;;;;5072887;28;20052;-75
2022/03/22 12:15:17;;;;;;;24.42;15.05;;;19.70;57.60;;;;;;5071701;28;20138;-76
2022/03/22 12:17:44;;;;;;;24.60;15.43;;;19.80;57.90;;;;;;5065542;28;20386;-76
2022/03/22 12:20:12;;;;;;;25.40;15.18;;;19.90;56.80;;;;;;5051114;28;20227;-75
2022/03/22 12:22:49;;;;;;;25.42;14.73;;;20.00;57.10;;;;;;5052164;28;20439;-75
2022/03/22 12:25:18;;;;;;;25.27;15.05;;;20.00;55.60;;;;;;5051623;28;20040;-75
2022/03/22 12:27:51;;;;;;;28.25;15.63;;;20.10;56.00;;;;;;5052364;28;20508;-76
2022/03/22 12:30:17;;;;;;;26.63;14.77;;;20.20;55.40;;;;;;5052386;28;20055;-75
2022/03/22 12:32:43;;;;;;;24.08;14.35;;;20.30;56.20;;;;;;5034680;28;20199;-75
2022/03/22 12:35:11;;;;;;;26.45;14.73;;;20.40;55.70;;;;;;5069977;28;20036;-75
2022/03/22 12:37:37;;;;;;;23.70;14.52;;;20.50;54.90;;;;;;5062157;28;20047;-75
2022/03/22 12:40:03;;;;;;;27.02;15.38;;;20.60;55.20;;;;;;5090648;28;20119;-76
2022/03/22 12:42:31;;;;;;;;;;;20.70;55.00;;;;;;5072482;28;20040;-76
2022/03/22 12:44:57;;;;;;;27.08;15.43;;;20.70;53.50;;;;;;5070027;28;20433;-75
2022/03/22 12:47:23;;;;;;;26.10;15.57;;;20.70;54.80;;;;;;5090224;28;20036;-76
2022/03/22 12:49:49;;;;;;;;;;;20.80;54.50;;;;;;5089964;28;20470;-76
2022/03/22 12:52:15;;;;;;;26.67;14.65;;;20.80;51.90;;;;;;5071892;28;19916;-76
2022/03/22 12:54:41;;;;;;;26.58;15.27;;;20.90;54.80;;;;;;5071904;28;20436;-75
2022/03/22 12:57:12;;;;;;;24.10;15.57;;;20.90;54.40;;;;;;5046889;28;20090;-77
2022/03/22 12:59:39;;;;;;;22.48;14.25;;;21.00;54.00;;;;;;5048818;28;20495;-75
2022/03/22 13:02:09;;;;;;;24.83;14.73;;;21.10;53.80;;;;;;5060770;28;20040;-76
2022/03/22 13:04:49;;;;;;;26.60;16.35;;;21.10;52.50;;;;;;5064664;28;20047;-79
2022/03/22 13:07:19;;;;;;;25.52;14.88;;;21.20;52.70;;;;;;5061756;28;20119;-76
2022/03/22 13:12:33;;;;;;;25.00;14.02;;;21.20;51.80;;;;;;5058369;28;20401;-78
2022/03/22 13:15:20;;;;;;;28.15;15.15;;;21.30;52.50;;;;;;5072509;28;20549;-78
2022/03/22 13:17:48;;;;;;;25.35;14.55;;;21.30;52.30;;;;;;5071015;28;20032;-78
2022/03/22 13:20:21;;;;;;;24.08;14.90;;;21.40;53.00;;;;;;5049407;28;20046;-77